sensor_id;sensor_type;location;lat;lon;timestamp;P1;durP1;ratioP1;P2;durP2;ratioP2
17947;SDS011;9099;47.958;11.366;2023-02-28T00:00:31;3.40;;;2.00;;
17947;SDS011;9099;47.958;11.366;2023-02-28T00:02:58;2.37;;;1.87;;
17947;SDS011;9099;47.958;11.366;2023-02-28T00:05:25;2.50;;;2.30;;
17947;SDS011;9099;47.958;11.366;2023-02-28T00:07:54;3.53;;;2.40;;
17947;SDS011;9099;47.958;11.366;2023-02-28T00:10:21;2.17;;;2.00;;
17947;SDS011;9099;47.958;11.366;2023-02-28T00:12:52;2.00;;;1.90;;
17947;SDS011;9099;47.958;11.366;2023-02-28T00:15:21;3.53;;;2.10;;
17947;SDS011;9099;47.958;11.366;2023-02-28T00:17:49;2.33;;;2.00;;
17947;SDS011;9099;47.958;11.366;2023-02-28T00:20:16;2.10;;;1.90;;
17947;SDS011;9099;47.958;11.366;2023-02-28T00:22:44;2.50;;;2.30;;
17947;SDS011;9099;47.958;11.366;2023-02-28T00:25:14;4.13;;;2.33;;
17947;SDS011;9099;47.958;11.366;2023-02-28T00:27:42;3.27;;;2.30;;
17947;SDS011;9099;47.958;11.366;2023-02-28T00:30:12;2.60;;;2.40;;
17947;SDS011;9099;47.958;11.366;2023-02-28T00:32:40;2.27;;;2.00;;
17947;SDS011;9099;47.958;11.366;2023-02-28T00:35:08;2.40;;;2.20;;
17947;SDS011;9099;47.958;11.366;2023-02-28T00:37:36;2.23;;;2.03;;
17947;SDS011;9099;47.958;11.366;2023-02-28T00:40:03;2.47;;;2.27;;
17947;SDS011;9099;47.958;11.366;2023-02-28T00:42:32;3.23;;;2.63;;
17947;SDS011;9099;47.958;11.366;2023-02-28T00:44:59;2.97;;;2.47;;
17947;SDS011;9099;47.958;11.366;2023-02-28T00:47:27;2.40;;;2.20;;
17947;SDS011;9099;47.958;11.366;2023-02-28T00:49:56;2.30;;;2.10;;
17947;SDS011;9099;47.958;11.366;2023-02-28T00:52:23;4.33;;;2.40;;
17947;SDS011;9099;47.958;11.366;2023-02-28T00:54:50;2.50;;;2.17;;
17947;SDS011;9099;47.958;11.366;2023-02-28T00:57:17;3.30;;;2.40;;
17947;SDS011;9099;47.958;11.366;2023-02-28T00:59:43;2.40;;;2.20;;
17947;SDS011;9099;47.958;11.366;2023-02-28T01:02:10;3.00;;;2.37;;
17947;SDS011;9099;47.958;11.366;2023-02-28T01:04:38;3.33;;;2.40;;
17947;SDS011;9099;47.958;11.366;2023-02-28T01:07:05;4.40;;;2.50;;
17947;SDS011;9099;47.958;11.366;2023-02-28T01:09:32;2.30;;;2.10;;
17947;SDS011;9099;47.958;11.366;2023-02-28T01:11:59;2.60;;;2.40;;
17947;SDS011;9099;47.958;11.366;2023-02-28T01:14:26;3.43;;;2.73;;
17947;SDS011;9099;47.958;11.366;2023-02-28T01:16:53;3.47;;;2.53;;
17947;SDS011;9099;47.958;11.366;2023-02-28T01:19:20;2.70;;;2.50;;
17947;SDS011;9099;47.958;11.366;2023-02-28T01:21:48;3.20;;;2.53;;
17947;SDS011;9099;47.958;11.366;2023-02-28T01:24:15;3.53;;;2.77;;
17947;SDS011;9099;47.958;11.366;2023-02-28T01:26:42;2.70;;;2.50;;
17947;SDS011;9099;47.958;11.366;2023-02-28T01:29:08;2.67;;;2.47;;
17947;SDS011;9099;47.958;11.366;2023-02-28T01:31:35;3.30;;;2.57;;
17947;SDS011;9099;47.958;11.366;2023-02-28T01:34:02;2.67;;;2.47;;
17947;SDS011;9099;47.958;11.366;2023-02-28T01:36:29;4.43;;;2.80;;
17947;SDS011;9099;47.958;11.366;2023-02-28T01:38:58;2.97;;;2.37;;
17947;SDS011;9099;47.958;11.366;2023-02-28T01:41:25;2.50;;;2.30;;
17947;SDS011;9099;47.958;11.366;2023-02-28T01:43:58;2.23;;;2.10;;
17947;SDS011;9099;47.958;11.366;2023-02-28T01:46:28;2.73;;;2.43;;
17947;SDS011;9099;47.958;11.366;2023-02-28T01:48:57;2.53;;;2.33;;
17947;SDS011;9099;47.958;11.366;2023-02-28T01:51:29;2.37;;;2.23;;
17947;SDS011;9099;47.958;11.366;2023-02-28T01:54:02;3.40;;;2.47;;
17947;SDS011;9099;47.958;11.366;2023-02-28T01:56:38;2.97;;;2.57;;
17947;SDS011;9099;47.958;11.366;2023-02-28T01:59:10;2.60;;;2.40;;
17947;SDS011;9099;47.958;11.366;2023-02-28T02:01:39;3.07;;;2.77;;
17947;SDS011;9099;47.958;11.366;2023-02-28T02:04:06;2.83;;;2.63;;
17947;SDS011;9099;47.958;11.366;2023-02-28T02:06:34;2.60;;;2.40;;
17947;SDS011;9099;47.958;11.366;2023-02-28T02:09:05;2.77;;;2.40;;
17947;SDS011;9099;47.958;11.366;2023-02-28T02:11:32;3.10;;;2.63;;
17947;SDS011;9099;47.958;11.366;2023-02-28T02:14:06;3.00;;;2.80;;
17947;SDS011;9099;47.958;11.366;2023-02-28T02:16:57;3.37;;;2.83;;
17947;SDS011;9099;47.958;11.366;2023-02-28T02:22:43;3.23;;;2.93;;
17947;SDS011;9099;47.958;11.366;2023-02-28T02:25:29;3.93;;;3.23;;
17947;SDS011;9099;47.958;11.366;2023-02-28T02:37:12;3.20;;;2.80;;
17947;SDS011;9099;47.958;11.366;2023-02-28T02:39:50;2.90;;;2.70;;
17947;SDS011;9099;47.958;11.366;2023-02-28T02:42:21;3.53;;;3.23;;
17947;SDS011;9099;47.958;11.366;2023-02-28T02:44:55;4.10;;;2.70;;
17947;SDS011;9099;47.958;11.366;2023-02-28T02:47:27;3.40;;;3.10;;
17947;SDS011;9099;47.958;11.366;2023-02-28T02:49:59;3.70;;;3.30;;
17947;SDS011;9099;47.958;11.366;2023-02-28T02:52:32;3.00;;;2.70;;
17947;SDS011;9099;47.958;11.366;2023-02-28T02:55:03;4.13;;;3.40;;
17947;SDS011;9099;47.958;11.366;2023-02-28T02:57:32;3.63;;;3.33;;
17947;SDS011;9099;47.958;11.366;2023-02-28T03:00:03;5.47;;;3.03;;
17947;SDS011;9099;47.958;11.366;2023-02-28T03:02:34;4.53;;;3.37;;
17947;SDS011;9099;47.958;11.366;2023-02-28T03:05:04;4.33;;;3.10;;
17947;SDS011;9099;47.958;11.366;2023-02-28T03:07:38;4.07;;;3.43;;
17947;SDS011;9099;47.958;11.366;2023-02-28T03:13:00;4.03;;;3.60;;
17947;SDS011;9099;47.958;11.366;2023-02-28T03:15:43;3.93;;;3.53;;
17947;SDS011;9099;47.958;11.366;2023-02-28T03:18:21;4.30;;;3.90;;
17947;SDS011;9099;47.958;11.366;2023-02-28T03:21:00;3.83;;;3.27;;
17947;SDS011;9099;47.958;11.366;2023-02-28T03:23:36;5.23;;;4.07;;
17947;SDS011;9099;47.958;11.366;2023-02-28T03:26:11;4.87;;;4.33;;
17947;SDS011;9099;47.958;11.366;2023-02-28T03:28:48;4.17;;;3.77;;
17947;SDS011;9099;47.958;11.366;2023-02-28T03:31:22;4.30;;;3.90;;
17947;SDS011;9099;47.958;11.366;2023-02-28T03:33:57;4.87;;;4.43;;
17947;SDS011;9099;47.958;11.366;2023-02-28T03:36:29;5.10;;;4.40;;
17947;SDS011;9099;47.958;11.366;2023-02-28T03:39:04;5.73;;;4.50;;
17947;SDS011;9099;47.958;11.366;2023-02-28T03:41:35;6.67;;;4.70;;
17947;SDS011;9099;47.958;11.366;2023-02-28T03:44:07;5.27;;;4.60;;
17947;SDS011;9099;47.958;11.366;2023-02-28T03:46:41;7.03;;;5.13;;
17947;SDS011;9099;47.958;11.366;2023-02-28T03:49:15;5.27;;;4.77;;
17947;SDS011;9099;47.958;11.366;2023-02-28T03:51:44;5.50;;;5.00;;
17947;SDS011;9099;47.958;11.366;2023-02-28T03:54:13;5.50;;;5.00;;
17947;SDS011;9099;47.958;11.366;2023-02-28T03:56:45;5.00;;;4.37;;
17947;SDS011;9099;47.958;11.366;2023-02-28T03:59:15;6.53;;;4.87;;
17947;SDS011;9099;47.958;11.366;2023-02-28T04:01:47;6.30;;;5.33;;
17947;SDS011;9099;47.958;11.366;2023-02-28T04:04:15;5.93;;;5.33;;
17947;SDS011;9099;47.958;11.366;2023-02-28T04:06:45;6.27;;;5.67;;
17947;SDS011;9099;47.958;11.366;2023-02-28T04:09:15;5.77;;;5.27;;
17947;SDS011;9099;47.958;11.366;2023-02-28T04:11:42;7.57;;;5.30;;
17947;SDS011;9099;47.958;11.366;2023-02-28T04:14:11;6.03;;;5.33;;
17947;SDS011;9099;47.958;11.366;2023-02-28T04:16:39;7.13;;;6.03;;
17947;SDS011;9099;47.958;11.366;2023-02-28T04:19:07;8.40;;;5.50;;
17947;SDS011;9099;47.958;11.366;2023-02-28T04:21:35;7.23;;;5.60;;
17947;SDS011;9099;47.958;11.366;2023-02-28T04:24:06;5.70;;;4.87;;
17947;SDS011;9099;47.958;11.366;2023-02-28T04:26:34;6.43;;;5.67;;
17947;SDS011;9099;47.958;11.366;2023-02-28T04:29:03;6.80;;;5.40;;
17947;SDS011;9099;47.958;11.366;2023-02-28T04:31:31;6.30;;;5.57;;
17947;SDS011;9099;47.958;11.366;2023-02-28T04:33:58;6.60;;;5.33;;
17947;SDS011;9099;47.958;11.366;2023-02-28T04:36:25;7.37;;;5.87;;
17947;SDS011;9099;47.958;11.366;2023-02-28T04:38:52;6.67;;;5.77;;
17947;SDS011;9099;47.958;11.366;2023-02-28T04:41:20;12.47;;;5.73;;
17947;SDS011;9099;47.958;11.366;2023-02-28T04:43:47;6.70;;;5.23;;
17947;SDS011;9099;47.958;11.366;2023-02-28T04:46:14;7.27;;;5.70;;
17947;SDS011;9099;47.958;11.366;2023-02-28T04:48:42;6.77;;;6.00;;
17947;SDS011;9099;47.958;11.366;2023-02-28T04:51:10;8.47;;;6.80;;
17947;SDS011;9099;47.958;11.366;2023-02-28T04:53:39;8.67;;;6.77;;
17947;SDS011;9099;47.958;11.366;2023-02-28T04:56:07;9.60;;;7.13;;
17947;SDS011;9099;47.958;11.366;2023-02-28T04:58:37;8.53;;;6.93;;
17947;SDS011;9099;47.958;11.366;2023-02-28T05:01:06;9.30;;;6.97;;
17947;SDS011;9099;47.958;11.366;2023-02-28T05:03:42;9.60;;;6.97;;
17947;SDS011;9099;47.958;11.366;2023-02-28T05:06:10;10.27;;;7.37;;
17947;SDS011;9099;47.958;11.366;2023-02-28T05:08:38;11.07;;;8.20;;
17947;SDS011;9099;47.958;11.366;2023-02-28T05:11:06;9.23;;;7.67;;
17947;SDS011;9099;47.958;11.366;2023-02-28T05:13:33;7.80;;;6.53;;
17947;SDS011;9099;47.958;11.366;2023-02-28T05:16:02;8.40;;;7.47;;
17947;SDS011;9099;47.958;11.366;2023-02-28T05:18:29;8.43;;;7.53;;
17947;SDS011;9099;47.958;11.366;2023-02-28T05:20:56;10.20;;;8.03;;
17947;SDS011;9099;47.958;11.366;2023-02-28T05:23:22;10.83;;;8.53;;
17947;SDS011;9099;47.958;11.366;2023-02-28T05:25:49;9.90;;;8.07;;
17947;SDS011;9099;47.958;11.366;2023-02-28T05:28:19;11.90;;;8.50;;
17947;SDS011;9099;47.958;11.366;2023-02-28T05:30:46;11.90;;;8.23;;
17947;SDS011;9099;47.958;11.366;2023-02-28T05:33:14;12.63;;;8.90;;
17947;SDS011;9099;47.958;11.366;2023-02-28T05:35:41;12.27;;;8.07;;
17947;SDS011;9099;47.958;11.366;2023-02-28T05:38:08;10.57;;;8.13;;
17947;SDS011;9099;47.958;11.366;2023-02-28T05:40:35;10.23;;;7.83;;
17947;SDS011;9099;47.958;11.366;2023-02-28T05:43:04;11.83;;;8.13;;
17947;SDS011;9099;47.958;11.366;2023-02-28T05:45:31;10.27;;;7.67;;
17947;SDS011;9099;47.958;11.366;2023-02-28T05:47:58;11.10;;;8.40;;
17947;SDS011;9099;47.958;11.366;2023-02-28T05:50:26;10.40;;;7.87;;
17947;SDS011;9099;47.958;11.366;2023-02-28T05:52:53;10.47;;;8.30;;
17947;SDS011;9099;47.958;11.366;2023-02-28T05:55:20;10.07;;;8.60;;
17947;SDS011;9099;47.958;11.366;2023-02-28T05:57:47;10.80;;;7.97;;
17947;SDS011;9099;47.958;11.366;2023-02-28T06:00:14;8.80;;;7.40;;
17947;SDS011;9099;47.958;11.366;2023-02-28T06:02:42;10.77;;;8.40;;
17947;SDS011;9099;47.958;11.366;2023-02-28T06:05:11;9.97;;;7.87;;
17947;SDS011;9099;47.958;11.366;2023-02-28T06:07:41;10.30;;;8.37;;
17947;SDS011;9099;47.958;11.366;2023-02-28T06:10:09;8.87;;;7.40;;
17947;SDS011;9099;47.958;11.366;2023-02-28T06:12:36;10.67;;;7.70;;
17947;SDS011;9099;47.958;11.366;2023-02-28T06:15:04;13.20;;;8.23;;
17947;SDS011;9099;47.958;11.366;2023-02-28T06:17:31;11.77;;;8.37;;
17947;SDS011;9099;47.958;11.366;2023-02-28T06:19:58;9.50;;;7.40;;
17947;SDS011;9099;47.958;11.366;2023-02-28T06:22:25;10.23;;;8.30;;
17947;SDS011;9099;47.958;11.366;2023-02-28T06:24:53;12.13;;;9.13;;
17947;SDS011;9099;47.958;11.366;2023-02-28T06:27:21;10.93;;;8.33;;
17947;SDS011;9099;47.958;11.366;2023-02-28T06:29:48;10.07;;;8.57;;
17947;SDS011;9099;47.958;11.366;2023-02-28T06:32:19;12.60;;;9.13;;
17947;SDS011;9099;47.958;11.366;2023-02-28T06:34:46;11.70;;;8.67;;
17947;SDS011;9099;47.958;11.366;2023-02-28T06:37:12;13.07;;;9.13;;
17947;SDS011;9099;47.958;11.366;2023-02-28T06:39:39;11.80;;;9.13;;
17947;SDS011;9099;47.958;11.366;2023-02-28T06:42:07;13.20;;;9.67;;
17947;SDS011;9099;47.958;11.366;2023-02-28T06:44:34;13.83;;;9.97;;
17947;SDS011;9099;47.958;11.366;2023-02-28T06:47:02;11.40;;;9.20;;
17947;SDS011;9099;47.958;11.366;2023-02-28T06:49:30;11.83;;;9.47;;
17947;SDS011;9099;47.958;11.366;2023-02-28T06:51:57;13.80;;;9.70;;
17947;SDS011;9099;47.958;11.366;2023-02-28T06:54:24;13.13;;;9.47;;
17947;SDS011;9099;47.958;11.366;2023-02-28T06:56:51;12.87;;;10.10;;
17947;SDS011;9099;47.958;11.366;2023-02-28T06:59:20;12.83;;;10.40;;
17947;SDS011;9099;47.958;11.366;2023-02-28T07:01:47;15.37;;;10.00;;
17947;SDS011;9099;47.958;11.366;2023-02-28T07:04:14;12.03;;;10.20;;
17947;SDS011;9099;47.958;11.366;2023-02-28T07:06:40;11.20;;;9.00;;
17947;SDS011;9099;47.958;11.366;2023-02-28T07:09:07;14.00;;;10.33;;
17947;SDS011;9099;47.958;11.366;2023-02-28T07:11:35;12.03;;;9.80;;
17947;SDS011;9099;47.958;11.366;2023-02-28T07:14:02;14.47;;;10.20;;
17947;SDS011;9099;47.958;11.366;2023-02-28T07:16:30;13.40;;;10.17;;
17947;SDS011;9099;47.958;11.366;2023-02-28T07:18:57;12.73;;;10.00;;
17947;SDS011;9099;47.958;11.366;2023-02-28T07:21:24;13.73;;;10.20;;
17947;SDS011;9099;47.958;11.366;2023-02-28T07:23:51;15.10;;;10.77;;
17947;SDS011;9099;47.958;11.366;2023-02-28T07:26:19;12.23;;;10.23;;
17947;SDS011;9099;47.958;11.366;2023-02-28T07:28:47;12.57;;;9.90;;
17947;SDS011;9099;47.958;11.366;2023-02-28T07:31:14;14.57;;;10.37;;
17947;SDS011;9099;47.958;11.366;2023-02-28T07:33:43;13.53;;;10.60;;
17947;SDS011;9099;47.958;11.366;2023-02-28T07:36:11;14.27;;;10.47;;
17947;SDS011;9099;47.958;11.366;2023-02-28T07:38:40;14.47;;;11.17;;
17947;SDS011;9099;47.958;11.366;2023-02-28T07:41:07;15.60;;;10.83;;
17947;SDS011;9099;47.958;11.366;2023-02-28T07:43:34;12.53;;;9.67;;
17947;SDS011;9099;47.958;11.366;2023-02-28T07:46:02;13.93;;;10.50;;
17947;SDS011;9099;47.958;11.366;2023-02-28T07:48:29;14.10;;;10.70;;
17947;SDS011;9099;47.958;11.366;2023-02-28T07:50:58;14.03;;;10.47;;
17947;SDS011;9099;47.958;11.366;2023-02-28T07:53:25;14.17;;;10.93;;
17947;SDS011;9099;47.958;11.366;2023-02-28T07:55:54;16.40;;;10.87;;
17947;SDS011;9099;47.958;11.366;2023-02-28T07:58:21;14.57;;;10.60;;
17947;SDS011;9099;47.958;11.366;2023-02-28T08:00:48;14.23;;;10.20;;
17947;SDS011;9099;47.958;11.366;2023-02-28T08:03:15;14.77;;;10.80;;
17947;SDS011;9099;47.958;11.366;2023-02-28T08:05:43;13.20;;;10.67;;
17947;SDS011;9099;47.958;11.366;2023-02-28T08:08:11;13.57;;;10.13;;
17947;SDS011;9099;47.958;11.366;2023-02-28T08:10:38;13.63;;;10.57;;
17947;SDS011;9099;47.958;11.366;2023-02-28T08:13:06;14.70;;;11.50;;
17947;SDS011;9099;47.958;11.366;2023-02-28T08:15:33;13.40;;;10.40;;
17947;SDS011;9099;47.958;11.366;2023-02-28T08:17:59;16.07;;;11.73;;
17947;SDS011;9099;47.958;11.366;2023-02-28T08:20:26;15.60;;;11.10;;
17947;SDS011;9099;47.958;11.366;2023-02-28T08:22:53;13.47;;;10.80;;
17947;SDS011;9099;47.958;11.366;2023-02-28T08:25:21;16.80;;;11.77;;
17947;SDS011;9099;47.958;11.366;2023-02-28T08:27:50;13.53;;;11.30;;
17947;SDS011;9099;47.958;11.366;2023-02-28T08:30:18;14.33;;;11.30;;
17947;SDS011;9099;47.958;11.366;2023-02-28T08:32:44;12.63;;;10.23;;
17947;SDS011;9099;47.958;11.366;2023-02-28T08:35:11;13.17;;;10.47;;
17947;SDS011;9099;47.958;11.366;2023-02-28T08:37:38;12.40;;;10.07;;
17947;SDS011;9099;47.958;11.366;2023-02-28T08:40:05;13.90;;;10.47;;
17947;SDS011;9099;47.958;11.366;2023-02-28T08:42:35;13.87;;;11.13;;
17947;SDS011;9099;47.958;11.366;2023-02-28T08:45:02;14.97;;;11.30;;
17947;SDS011;9099;47.958;11.366;2023-02-28T08:47:29;16.17;;;11.60;;
17947;SDS011;9099;47.958;11.366;2023-02-28T08:49:56;14.40;;;10.60;;
17947;SDS011;9099;47.958;11.366;2023-02-28T08:52:23;11.93;;;10.20;;
17947;SDS011;9099;47.958;11.366;2023-02-28T08:54:49;12.90;;;10.37;;
17947;SDS011;9099;47.958;11.366;2023-02-28T08:57:16;13.57;;;10.83;;
17947;SDS011;9099;47.958;11.366;2023-02-28T08:59:44;12.30;;;11.00;;
17947;SDS011;9099;47.958;11.366;2023-02-28T09:02:12;13.10;;;10.70;;
17947;SDS011;9099;47.958;11.366;2023-02-28T09:04:40;14.07;;;10.83;;
17947;SDS011;9099;47.958;11.366;2023-02-28T09:07:07;12.90;;;10.37;;
17947;SDS011;9099;47.958;11.366;2023-02-28T09:09:34;13.60;;;10.83;;
17947;SDS011;9099;47.958;11.366;2023-02-28T09:12:01;12.70;;;9.97;;
17947;SDS011;9099;47.958;11.366;2023-02-28T09:14:28;11.67;;;9.27;;
17947;SDS011;9099;47.958;11.366;2023-02-28T09:16:56;15.13;;;10.30;;
17947;SDS011;9099;47.958;11.366;2023-02-28T09:19:23;12.47;;;9.10;;
17947;SDS011;9099;47.958;11.366;2023-02-28T09:21:50;11.60;;;9.87;;
17947;SDS011;9099;47.958;11.366;2023-02-28T09:24:17;12.23;;;10.33;;
17947;SDS011;9099;47.958;11.366;2023-02-28T09:26:45;12.53;;;10.03;;
17947;SDS011;9099;47.958;11.366;2023-02-28T09:29:12;12.83;;;10.03;;
17947;SDS011;9099;47.958;11.366;2023-02-28T09:31:39;11.67;;;9.97;;
17947;SDS011;9099;47.958;11.366;2023-02-28T09:34:07;14.00;;;11.03;;
17947;SDS011;9099;47.958;11.366;2023-02-28T09:36:34;12.67;;;10.93;;
17947;SDS011;9099;47.958;11.366;2023-02-28T09:39:03;14.50;;;11.37;;
17947;SDS011;9099;47.958;11.366;2023-02-28T09:41:32;11.80;;;10.10;;
17947;SDS011;9099;47.958;11.366;2023-02-28T09:44:12;14.47;;;10.50;;
17947;SDS011;9099;47.958;11.366;2023-02-28T09:46:44;12.20;;;10.73;;
17947;SDS011;9099;47.958;11.366;2023-02-28T09:49:17;12.20;;;10.70;;
17947;SDS011;9099;47.958;11.366;2023-02-28T09:51:50;13.63;;;10.20;;
17947;SDS011;9099;47.958;11.366;2023-02-28T09:54:22;12.97;;;10.20;;
17947;SDS011;9099;47.958;11.366;2023-02-28T09:56:51;13.80;;;10.60;;
17947;SDS011;9099;47.958;11.366;2023-02-28T09:59:36;13.20;;;10.20;;
17947;SDS011;9099;47.958;11.366;2023-02-28T10:02:30;12.60;;;10.27;;
17947;SDS011;9099;47.958;11.366;2023-02-28T10:05:26;13.47;;;10.50;;
17947;SDS011;9099;47.958;11.366;2023-02-28T10:08:00;15.33;;;12.37;;
17947;SDS011;9099;47.958;11.366;2023-02-28T10:10:33;19.93;;;15.00;;
17947;SDS011;9099;47.958;11.366;2023-02-28T10:13:05;23.70;;;17.77;;
17947;SDS011;9099;47.958;11.366;2023-02-28T10:15:39;63.57;;;29.67;;
17947;SDS011;9099;47.958;11.366;2023-02-28T10:18:06;24.97;;;15.13;;
17947;SDS011;9099;47.958;11.366;2023-02-28T10:20:40;31.93;;;17.47;;
17947;SDS011;9099;47.958;11.366;2023-02-28T10:23:09;29.90;;;17.73;;
17947;SDS011;9099;47.958;11.366;2023-02-28T10:25:40;23.20;;;14.20;;
17947;SDS011;9099;47.958;11.366;2023-02-28T10:28:14;23.67;;;15.57;;
17947;SDS011;9099;47.958;11.366;2023-02-28T10:30:43;17.93;;;12.73;;
17947;SDS011;9099;47.958;11.366;2023-02-28T10:33:16;21.43;;;14.40;;
17947;SDS011;9099;47.958;11.366;2023-02-28T10:35:48;17.77;;;13.37;;
17947;SDS011;9099;47.958;11.366;2023-02-28T10:38:17;15.17;;;11.83;;
17947;SDS011;9099;47.958;11.366;2023-02-28T10:40:45;11.50;;;10.30;;
17947;SDS011;9099;47.958;11.366;2023-02-28T10:43:19;12.73;;;10.90;;
17947;SDS011;9099;47.958;11.366;2023-02-28T10:45:58;15.30;;;11.83;;
17947;SDS011;9099;47.958;11.366;2023-02-28T10:48:34;12.77;;;9.97;;
17947;SDS011;9099;47.958;11.366;2023-02-28T10:51:05;11.47;;;9.83;;
17947;SDS011;9099;47.958;11.366;2023-02-28T10:53:36;12.77;;;10.43;;
17947;SDS011;9099;47.958;11.366;2023-02-28T10:56:12;13.77;;;11.63;;
17947;SDS011;9099;47.958;11.366;2023-02-28T10:58:47;13.27;;;11.70;;
17947;SDS011;9099;47.958;11.366;2023-02-28T11:01:17;13.77;;;10.83;;
17947;SDS011;9099;47.958;11.366;2023-02-28T11:03:45;12.40;;;10.23;;
17947;SDS011;9099;47.958;11.366;2023-02-28T11:06:15;11.37;;;10.10;;
17947;SDS011;9099;47.958;11.366;2023-02-28T11:08:44;12.90;;;10.43;;
17947;SDS011;9099;47.958;11.366;2023-02-28T11:11:13;12.53;;;10.23;;
17947;SDS011;9099;47.958;11.366;2023-02-28T11:13:42;12.07;;;10.23;;
17947;SDS011;9099;47.958;11.366;2023-02-28T11:16:11;12.73;;;10.43;;
17947;SDS011;9099;47.958;11.366;2023-02-28T11:18:41;11.57;;;10.37;;
17947;SDS011;9099;47.958;11.366;2023-02-28T11:21:16;11.50;;;10.27;;
17947;SDS011;9099;47.958;11.366;2023-02-28T11:23:47;11.63;;;9.70;;
17947;SDS011;9099;47.958;11.366;2023-02-28T11:26:36;11.03;;;9.80;;
17947;SDS011;9099;47.958;11.366;2023-02-28T11:32:00;14.20;;;10.53;;
17947;SDS011;9099;47.958;11.366;2023-02-28T11:34:43;12.70;;;10.07;;
17947;SDS011;9099;47.958;11.366;2023-02-28T11:37:13;14.53;;;11.20;;
17947;SDS011;9099;47.958;11.366;2023-02-28T11:39:41;11.67;;;10.47;;
17947;SDS011;9099;47.958;11.366;2023-02-28T11:42:16;11.10;;;10.00;;
17947;SDS011;9099;47.958;11.366;2023-02-28T11:44:58;11.97;;;10.27;;
17947;SDS011;9099;47.958;11.366;2023-02-28T11:47:36;14.60;;;10.83;;
17947;SDS011;9099;47.958;11.366;2023-02-28T11:50:15;13.10;;;10.70;;
17947;SDS011;9099;47.958;11.366;2023-02-28T11:52:50;12.23;;;10.10;;
17947;SDS011;9099;47.958;11.366;2023-02-28T11:55:20;14.17;;;10.40;;
17947;SDS011;9099;47.958;11.366;2023-02-28T11:57:55;32.20;;;19.17;;
17947;SDS011;9099;47.958;11.366;2023-02-28T12:00:38;17.67;;;11.80;;
17947;SDS011;9099;47.958;11.366;2023-02-28T12:03:15;14.60;;;11.63;;
17947;SDS011;9099;47.958;11.366;2023-02-28T12:05:53;13.60;;;11.43;;
17947;SDS011;9099;47.958;11.366;2023-02-28T12:08:31;15.90;;;11.13;;
17947;SDS011;9099;47.958;11.366;2023-02-28T12:11:11;13.73;;;11.97;;
17947;SDS011;9099;47.958;11.366;2023-02-28T12:13:51;17.63;;;12.20;;
17947;SDS011;9099;47.958;11.366;2023-02-28T12:16:41;14.03;;;11.30;;
17947;SDS011;9099;47.958;11.366;2023-02-28T12:19:19;15.23;;;11.20;;
17947;SDS011;9099;47.958;11.366;2023-02-28T12:21:56;14.00;;;10.67;;
17947;SDS011;9099;47.958;11.366;2023-02-28T12:24:46;10.97;;;9.40;;
17947;SDS011;9099;47.958;11.366;2023-02-28T12:27:22;12.47;;;10.00;;
17947;SDS011;9099;47.958;11.366;2023-02-28T12:29:52;10.87;;;9.37;;
17947;SDS011;9099;47.958;11.366;2023-02-28T12:32:23;13.03;;;10.23;;
17947;SDS011;9099;47.958;11.366;2023-02-28T12:34:57;17.50;;;10.50;;
17947;SDS011;9099;47.958;11.366;2023-02-28T12:37:29;13.63;;;10.10;;
17947;SDS011;9099;47.958;11.366;2023-02-28T12:40:03;16.73;;;10.93;;
17947;SDS011;9099;47.958;11.366;2023-02-28T12:42:36;19.60;;;14.00;;
17947;SDS011;9099;47.958;11.366;2023-02-28T12:45:08;27.53;;;16.40;;
17947;SDS011;9099;47.958;11.366;2023-02-28T12:47:40;13.60;;;10.37;;
17947;SDS011;9099;47.958;11.366;2023-02-28T12:50:11;13.90;;;11.37;;
17947;SDS011;9099;47.958;11.366;2023-02-28T12:52:40;11.90;;;10.17;;
17947;SDS011;9099;47.958;11.366;2023-02-28T12:55:15;13.83;;;9.90;;
17947;SDS011;9099;47.958;11.366;2023-02-28T12:57:50;13.13;;;9.77;;
17947;SDS011;9099;47.958;11.366;2023-02-28T13:00:24;10.60;;;9.00;;
17947;SDS011;9099;47.958;11.366;2023-02-28T13:11:33;14.53;;;9.80;;
17947;SDS011;9099;47.958;11.366;2023-02-28T13:14:20;10.10;;;9.03;;
17947;SDS011;9099;47.958;11.366;2023-02-28T13:16:55;10.90;;;9.80;;
17947;SDS011;9099;47.958;11.366;2023-02-28T13:19:25;10.93;;;9.50;;
17947;SDS011;9099;47.958;11.366;2023-02-28T13:21:54;11.03;;;9.37;;
17947;SDS011;9099;47.958;11.366;2023-02-28T13:24:37;9.93;;;8.93;;
17947;SDS011;9099;47.958;11.366;2023-02-28T13:33:20;13.37;;;10.17;;
17947;SDS011;9099;47.958;11.366;2023-02-28T13:35:52;10.87;;;9.70;;
17947;SDS011;9099;47.958;11.366;2023-02-28T13:38:35;11.80;;;9.50;;
17947;SDS011;9099;47.958;11.366;2023-02-28T13:44:09;10.83;;;9.73;;
17947;SDS011;9099;47.958;11.366;2023-02-28T13:49:37;11.87;;;9.73;;
17947;SDS011;9099;47.958;11.366;2023-02-28T13:52:07;10.77;;;9.53;;
17947;SDS011;9099;47.958;11.366;2023-02-28T13:54:44;11.60;;;10.07;;
17947;SDS011;9099;47.958;11.366;2023-02-28T13:57:45;11.00;;;9.83;;
17947;SDS011;9099;47.958;11.366;2023-02-28T14:00:28;12.97;;;10.07;;
17947;SDS011;9099;47.958;11.366;2023-02-28T14:03:22;13.03;;;9.80;;
17947;SDS011;9099;47.958;11.366;2023-02-28T14:06:09;10.97;;;9.47;;
17947;SDS011;9099;47.958;11.366;2023-02-28T14:08:45;11.87;;;9.70;;
17947;SDS011;9099;47.958;11.366;2023-02-28T14:11:27;13.60;;;9.87;;
17947;SDS011;9099;47.958;11.366;2023-02-28T14:13:56;11.43;;;9.87;;
17947;SDS011;9099;47.958;11.366;2023-02-28T14:16:27;11.60;;;9.93;;
17947;SDS011;9099;47.958;11.366;2023-02-28T14:19:05;10.90;;;9.77;;
17947;SDS011;9099;47.958;11.366;2023-02-28T14:21:39;13.00;;;10.03;;
17947;SDS011;9099;47.958;11.366;2023-02-28T14:24:39;10.63;;;9.53;;
17947;SDS011;9099;47.958;11.366;2023-02-28T14:30:25;12.73;;;9.97;;
17947;SDS011;9099;47.958;11.366;2023-02-28T14:33:16;10.87;;;9.77;;
17947;SDS011;9099;47.958;11.366;2023-02-28T14:36:03;11.90;;;9.83;;
17947;SDS011;9099;47.958;11.366;2023-02-28T14:38:36;11.93;;;10.30;;
17947;SDS011;9099;47.958;11.366;2023-02-28T14:41:12;11.57;;;10.40;;
17947;SDS011;9099;47.958;11.366;2023-02-28T14:43:50;11.10;;;9.93;;
17947;SDS011;9099;47.958;11.366;2023-02-28T14:46:19;11.60;;;9.60;;
17947;SDS011;9099;47.958;11.366;2023-02-28T14:48:49;12.00;;;10.00;;
17947;SDS011;9099;47.958;11.366;2023-02-28T14:51:20;11.33;;;9.47;;
17947;SDS011;9099;47.958;11.366;2023-02-28T14:53:49;13.37;;;10.57;;
17947;SDS011;9099;47.958;11.366;2023-02-28T14:56:21;10.63;;;9.53;;
17947;SDS011;9099;47.958;11.366;2023-02-28T14:58:53;13.30;;;10.73;;
17947;SDS011;9099;47.958;11.366;2023-02-28T15:01:22;11.27;;;10.10;;
17947;SDS011;9099;47.958;11.366;2023-02-28T15:03:57;12.43;;;10.10;;
17947;SDS011;9099;47.958;11.366;2023-02-28T15:06:26;12.90;;;10.53;;
17947;SDS011;9099;47.958;11.366;2023-02-28T15:09:14;12.97;;;9.50;;
17947;SDS011;9099;47.958;11.366;2023-02-28T15:11:44;17.73;;;10.30;;
17947;SDS011;9099;47.958;11.366;2023-02-28T15:14:15;11.97;;;10.27;;
17947;SDS011;9099;47.958;11.366;2023-02-28T15:16:45;13.37;;;9.77;;
17947;SDS011;9099;47.958;11.366;2023-02-28T15:19:18;10.17;;;9.13;;
17947;SDS011;9099;47.958;11.366;2023-02-28T15:21:50;13.87;;;9.93;;
17947;SDS011;9099;47.958;11.366;2023-02-28T15:24:20;11.63;;;10.23;;
17947;SDS011;9099;47.958;11.366;2023-02-28T15:26:55;11.90;;;9.63;;
17947;SDS011;9099;47.958;11.366;2023-02-28T15:29:25;12.07;;;9.37;;
17947;SDS011;9099;47.958;11.366;2023-02-28T15:31:55;10.47;;;9.07;;
17947;SDS011;9099;47.958;11.366;2023-02-28T15:34:29;12.87;;;10.13;;
17947;SDS011;9099;47.958;11.366;2023-02-28T15:37:01;11.50;;;9.17;;